Terminal Aerodrome Forecast
Issued by NWS Mt. Holly, NJ

Home | Current Version | Previous Version | Text Only | Print | Product List | Glossary On
Versions: 1 2 3 4 5 6 7 8 9 10 11 12 13 14 15 16 17 18
046
FTUS41 KPHI 291735
TAFABE
TAF
KABE 291735Z 2918/3018 18008KT P6SM BKN250
     FM300000 19004KT P6SM OVC100
     FM300300 19003KT 5SM -SHRA BR OVC050
      TEMPO 3006/3010 4SM SHRA BKN015
     FM301000 36003KT 4SM -RA BR OVC015
     FM301200 00000KT 2SM -RA BR OVC007
     FM301400 VRB03KT 4SM -RA BR OVC015
     FM301600 VRB03KT P6SM OVC025=

USA.gov is the U.S. government's official web portal to all federal, state and local government web resources and services.